sensor_id;sensor_type;location;lat;lon;timestamp;noise_LAeq;noise_LA_min;noise_LA_max;noise_LA01;noise_LA95
69619;Laerm;57653;51.434;5.984;2022-12-24T00:00:10;39.66;37.86;45.60;;
69619;Laerm;57653;51.434;5.984;2022-12-24T00:00:21;39.64;36.64;52.97;;
69619;Laerm;57653;51.434;5.984;2022-12-24T00:00:31;38.36;36.80;41.97;;
69619;Laerm;57653;51.434;5.984;2022-12-24T00:00:42;49.19;37.62;57.64;;
69619;Laerm;57653;51.434;5.984;2022-12-24T00:00:54;59.87;40.12;65.86;;
69619;Laerm;57653;51.434;5.984;2022-12-24T00:01:05;39.67;35.95;53.39;;
69619;Laerm;57653;51.434;5.984;2022-12-24T00:01:15;38.99;35.40;50.05;;
69619;Laerm;57653;51.434;5.984;2022-12-24T00:01:26;42.88;36.88;58.26;;
69619;Laerm;57653;51.434;5.984;2022-12-24T00:01:36;43.89;36.86;61.21;;
69619;Laerm;57653;51.434;5.984;2022-12-24T00:01:46;39.89;36.84;57.76;;
69619;Laerm;57653;51.434;5.984;2022-12-24T00:01:57;43.35;36.11;54.57;;
69619;Laerm;57653;51.434;5.984;2022-12-24T00:02:07;44.54;39.27;57.58;;
69619;Laerm;57653;51.434;5.984;2022-12-24T00:02:17;39.99;37.03;48.51;;
69619;Laerm;57653;51.434;5.984;2022-12-24T00:02:28;42.75;37.78;54.43;;
69619;Laerm;57653;51.434;5.984;2022-12-24T00:02:38;44.91;37.04;62.08;;
69619;Laerm;57653;51.434;5.984;2022-12-24T00:02:48;37.69;35.61;40.96;;
69619;Laerm;57653;51.434;5.984;2022-12-24T00:02:59;36.65;35.00;40.17;;
69619;Laerm;57653;51.434;5.984;2022-12-24T00:03:09;37.82;35.45;47.55;;
69619;Laerm;57653;51.434;5.984;2022-12-24T00:03:19;36.68;34.72;44.21;;
69619;Laerm;57653;51.434;5.984;2022-12-24T00:03:29;42.30;36.45;57.31;;
69619;Laerm;57653;51.434;5.984;2022-12-24T00:03:40;48.55;36.43;59.99;;
69619;Laerm;57653;51.434;5.984;2022-12-24T00:03:50;38.27;36.83;40.73;;
69619;Laerm;57653;51.434;5.984;2022-12-24T00:04:00;38.06;35.55;43.10;;
69619;Laerm;57653;51.434;5.984;2022-12-24T00:04:10;36.82;35.35;39.57;;
69619;Laerm;57653;51.434;5.984;2022-12-24T00:04:21;36.41;34.32;43.71;;
69619;Laerm;57653;51.434;5.984;2022-12-24T00:04:31;36.15;34.57;46.86;;
69619;Laerm;57653;51.434;5.984;2022-12-24T00:04:41;36.46;34.76;44.87;;
69619;Laerm;57653;51.434;5.984;2022-12-24T00:04:52;36.37;34.53;45.31;;
69619;Laerm;57653;51.434;5.984;2022-12-24T00:05:02;37.73;35.34;43.77;;
69619;Laerm;57653;51.434;5.984;2022-12-24T00:05:12;37.95;35.93;43.83;;
69619;Laerm;57653;51.434;5.984;2022-12-24T00:05:22;46.80;38.67;61.47;;
69619;Laerm;57653;51.434;5.984;2022-12-24T00:05:33;44.27;37.28;57.12;;
69619;Laerm;57653;51.434;5.984;2022-12-24T00:05:43;52.67;37.22;68.15;;
69619;Laerm;57653;51.434;5.984;2022-12-24T00:05:53;40.74;37.77;54.69;;
69619;Laerm;57653;51.434;5.984;2022-12-24T00:06:04;43.72;38.32;59.35;;
69619;Laerm;57653;51.434;5.984;2022-12-24T00:06:16;38.74;36.74;41.02;;
69619;Laerm;57653;51.434;5.984;2022-12-24T00:06:26;41.20;36.59;50.33;;
69619;Laerm;57653;51.434;5.984;2022-12-24T00:06:36;38.92;36.73;47.04;;
69619;Laerm;57653;51.434;5.984;2022-12-24T00:06:47;39.53;37.32;43.94;;
69619;Laerm;57653;51.434;5.984;2022-12-24T00:06:57;38.67;35.69;51.12;;
69619;Laerm;57653;51.434;5.984;2022-12-24T00:07:07;50.59;35.97;63.72;;
69619;Laerm;57653;51.434;5.984;2022-12-24T00:07:18;42.94;37.60;62.70;;
69619;Laerm;57653;51.434;5.984;2022-12-24T00:07:28;37.31;35.62;44.15;;
69619;Laerm;57653;51.434;5.984;2022-12-24T00:07:38;36.40;35.28;38.28;;
69619;Laerm;57653;51.434;5.984;2022-12-24T00:07:49;36.72;35.08;42.64;;
69619;Laerm;57653;51.434;5.984;2022-12-24T00:07:59;37.24;35.57;45.93;;
69619;Laerm;57653;51.434;5.984;2022-12-24T00:08:09;37.73;35.65;48.27;;
69619;Laerm;57653;51.434;5.984;2022-12-24T00:08:20;40.21;35.45;54.18;;
69619;Laerm;57653;51.434;5.984;2022-12-24T00:08:30;37.83;35.55;40.11;;
69619;Laerm;57653;51.434;5.984;2022-12-24T00:08:40;46.72;38.40;65.42;;
69619;Laerm;57653;51.434;5.984;2022-12-24T00:08:51;52.02;38.11;65.34;;
69619;Laerm;57653;51.434;5.984;2022-12-24T00:09:01;38.21;35.56;43.20;;
69619;Laerm;57653;51.434;5.984;2022-12-24T00:09:12;42.99;39.26;55.57;;
69619;Laerm;57653;51.434;5.984;2022-12-24T00:09:22;48.61;37.56;61.75;;
69619;Laerm;57653;51.434;5.984;2022-12-24T00:09:32;39.69;37.49;51.71;;
69619;Laerm;57653;51.434;5.984;2022-12-24T00:09:45;46.99;36.93;63.48;;
69619;Laerm;57653;51.434;5.984;2022-12-24T00:09:55;39.48;36.80;47.39;;
69619;Laerm;57653;51.434;5.984;2022-12-24T00:10:06;42.45;36.36;55.47;;
69619;Laerm;57653;51.434;5.984;2022-12-24T00:10:17;42.71;37.42;54.54;;
69619;Laerm;57653;51.434;5.984;2022-12-24T00:10:27;38.73;35.67;50.35;;
69619;Laerm;57653;51.434;5.984;2022-12-24T00:10:37;40.70;35.70;58.99;;
69619;Laerm;57653;51.434;5.984;2022-12-24T00:10:51;42.10;34.95;56.51;;
69619;Laerm;57653;51.434;5.984;2022-12-24T00:11:02;37.26;34.54;52.24;;
69619;Laerm;57653;51.434;5.984;2022-12-24T00:11:12;36.29;34.51;43.40;;
69619;Laerm;57653;51.434;5.984;2022-12-24T00:11:22;36.96;34.65;42.55;;
69619;Laerm;57653;51.434;5.984;2022-12-24T00:11:32;36.88;35.05;47.70;;
69619;Laerm;57653;51.434;5.984;2022-12-24T00:11:43;37.05;35.48;41.54;;
69619;Laerm;57653;51.434;5.984;2022-12-24T00:11:53;36.26;34.66;41.71;;
69619;Laerm;57653;51.434;5.984;2022-12-24T00:12:04;39.06;36.04;49.61;;
69619;Laerm;57653;51.434;5.984;2022-12-24T00:12:14;40.76;36.05;57.05;;
69619;Laerm;57653;51.434;5.984;2022-12-24T00:12:24;44.20;38.83;57.07;;
69619;Laerm;57653;51.434;5.984;2022-12-24T00:12:35;47.47;39.05;62.32;;
69619;Laerm;57653;51.434;5.984;2022-12-24T00:12:45;44.08;37.71;58.24;;
69619;Laerm;57653;51.434;5.984;2022-12-24T00:12:56;50.52;36.29;65.75;;
69619;Laerm;57653;51.434;5.984;2022-12-24T00:13:06;37.69;35.78;46.72;;
69619;Laerm;57653;51.434;5.984;2022-12-24T00:13:16;42.08;36.67;59.29;;
69619;Laerm;57653;51.434;5.984;2022-12-24T00:13:27;39.67;37.19;47.37;;
69619;Laerm;57653;51.434;5.984;2022-12-24T00:13:37;48.93;38.73;64.97;;
69619;Laerm;57653;51.434;5.984;2022-12-24T00:13:48;45.17;41.18;55.54;;
69619;Laerm;57653;51.434;5.984;2022-12-24T00:13:58;44.02;40.27;57.11;;
69619;Laerm;57653;51.434;5.984;2022-12-24T00:14:08;46.75;39.64;60.79;;
69619;Laerm;57653;51.434;5.984;2022-12-24T00:14:18;45.33;38.65;55.58;;
69619;Laerm;57653;51.434;5.984;2022-12-24T00:14:29;41.96;38.20;49.24;;
69619;Laerm;57653;51.434;5.984;2022-12-24T00:14:39;51.92;37.57;64.91;;
69619;Laerm;57653;51.434;5.984;2022-12-24T00:14:50;51.72;36.45;64.42;;
69619;Laerm;57653;51.434;5.984;2022-12-24T00:15:00;52.57;36.75;68.82;;
69619;Laerm;57653;51.434;5.984;2022-12-24T00:15:10;48.82;35.89;65.65;;
69619;Laerm;57653;51.434;5.984;2022-12-24T00:15:21;46.69;36.14;62.28;;
69619;Laerm;57653;51.434;5.984;2022-12-24T00:15:31;40.12;35.48;54.43;;
69619;Laerm;57653;51.434;5.984;2022-12-24T00:15:41;39.80;37.50;42.28;;
69619;Laerm;57653;51.434;5.984;2022-12-24T00:15:51;38.61;36.10;44.29;;
69619;Laerm;57653;51.434;5.984;2022-12-24T00:16:02;40.30;34.78;54.21;;
69619;Laerm;57653;51.434;5.984;2022-12-24T00:16:12;35.90;34.31;39.95;;
69619;Laerm;57653;51.434;5.984;2022-12-24T00:16:22;39.78;33.95;55.68;;
69619;Laerm;57653;51.434;5.984;2022-12-24T00:16:33;47.34;37.78;60.29;;
69619;Laerm;57653;51.434;5.984;2022-12-24T00:16:43;42.08;36.74;57.03;;
69619;Laerm;57653;51.434;5.984;2022-12-24T00:16:53;44.27;38.46;55.88;;
69619;Laerm;57653;51.434;5.984;2022-12-24T00:17:03;41.69;37.78;54.05;;
69619;Laerm;57653;51.434;5.984;2022-12-24T00:17:14;37.92;35.77;42.47;;
69619;Laerm;57653;51.434;5.984;2022-12-24T00:17:24;36.56;34.91;46.28;;
69619;Laerm;57653;51.434;5.984;2022-12-24T00:17:34;36.75;34.49;46.11;;
69619;Laerm;57653;51.434;5.984;2022-12-24T00:17:44;36.12;34.24;46.90;;
69619;Laerm;57653;51.434;5.984;2022-12-24T00:17:55;37.64;34.24;55.52;;
69619;Laerm;57653;51.434;5.984;2022-12-24T00:18:05;38.22;34.86;45.64;;
69619;Laerm;57653;51.434;5.984;2022-12-24T00:18:15;36.66;34.12;42.97;;
69619;Laerm;57653;51.434;5.984;2022-12-24T00:18:26;39.40;34.31;51.06;;
69619;Laerm;57653;51.434;5.984;2022-12-24T00:18:36;36.82;35.28;44.78;;
69619;Laerm;57653;51.434;5.984;2022-12-24T00:18:46;42.08;35.66;57.70;;
69619;Laerm;57653;51.434;5.984;2022-12-24T00:18:56;36.86;34.60;48.60;;
69619;Laerm;57653;51.434;5.984;2022-12-24T00:19:07;36.60;34.69;40.01;;
69619;Laerm;57653;51.434;5.984;2022-12-24T00:19:17;41.91;36.26;53.06;;
69619;Laerm;57653;51.434;5.984;2022-12-24T00:19:27;42.31;37.02;56.44;;
69619;Laerm;57653;51.434;5.984;2022-12-24T00:19:37;40.31;36.56;54.74;;
69619;Laerm;57653;51.434;5.984;2022-12-24T00:19:48;40.07;37.09;49.76;;
69619;Laerm;57653;51.434;5.984;2022-12-24T00:19:58;43.32;37.30;54.64;;
69619;Laerm;57653;51.434;5.984;2022-12-24T00:20:08;42.50;39.56;54.18;;
69619;Laerm;57653;51.434;5.984;2022-12-24T00:20:19;39.63;35.55;48.05;;
69619;Laerm;57653;51.434;5.984;2022-12-24T00:20:29;36.61;34.97;41.97;;
69619;Laerm;57653;51.434;5.984;2022-12-24T00:20:39;37.61;35.41;44.48;;
69619;Laerm;57653;51.434;5.984;2022-12-24T00:20:49;40.88;35.80;52.79;;
69619;Laerm;57653;51.434;5.984;2022-12-24T00:21:00;38.23;35.39;51.29;;
69619;Laerm;57653;51.434;5.984;2022-12-24T00:21:13;39.45;34.80;56.95;;
69619;Laerm;57653;51.434;5.984;2022-12-24T00:21:24;37.68;35.66;43.58;;
69619;Laerm;57653;51.434;5.984;2022-12-24T00:21:34;37.50;34.90;44.14;;
69619;Laerm;57653;51.434;5.984;2022-12-24T00:21:44;36.20;34.57;38.48;;
69619;Laerm;57653;51.434;5.984;2022-12-24T00:21:54;36.91;35.12;44.90;;
69619;Laerm;57653;51.434;5.984;2022-12-24T00:22:05;38.83;36.12;48.54;;
69619;Laerm;57653;51.434;5.984;2022-12-24T00:22:15;38.07;35.68;50.36;;
69619;Laerm;57653;51.434;5.984;2022-12-24T00:22:25;50.46;35.86;64.67;;
69619;Laerm;57653;51.434;5.984;2022-12-24T00:22:35;36.06;34.39;42.74;;
69619;Laerm;57653;51.434;5.984;2022-12-24T00:22:45;35.81;34.18;42.73;;
69619;Laerm;57653;51.434;5.984;2022-12-24T00:22:56;35.96;34.08;38.14;;
69619;Laerm;57653;51.434;5.984;2022-12-24T00:23:06;35.96;34.12;40.00;;
69619;Laerm;57653;51.434;5.984;2022-12-24T00:23:16;35.15;33.97;39.55;;
69619;Laerm;57653;51.434;5.984;2022-12-24T00:23:27;35.99;34.27;42.40;;
69619;Laerm;57653;51.434;5.984;2022-12-24T00:23:37;36.82;33.91;47.84;;
69619;Laerm;57653;51.434;5.984;2022-12-24T00:23:47;37.90;35.37;46.55;;
69619;Laerm;57653;51.434;5.984;2022-12-24T00:23:57;35.31;33.82;37.39;;
69619;Laerm;57653;51.434;5.984;2022-12-24T00:24:08;34.85;33.66;39.24;;
69619;Laerm;57653;51.434;5.984;2022-12-24T00:24:18;35.52;33.90;39.09;;
69619;Laerm;57653;51.434;5.984;2022-12-24T00:24:28;38.21;36.12;43.28;;
69619;Laerm;57653;51.434;5.984;2022-12-24T00:24:38;37.43;34.51;43.22;;
69619;Laerm;57653;51.434;5.984;2022-12-24T00:24:49;35.89;34.46;41.12;;
69619;Laerm;57653;51.434;5.984;2022-12-24T00:24:59;35.72;33.97;44.40;;
69619;Laerm;57653;51.434;5.984;2022-12-24T00:25:10;35.70;33.76;49.05;;
69619;Laerm;57653;51.434;5.984;2022-12-24T00:25:20;36.05;34.26;44.80;;
69619;Laerm;57653;51.434;5.984;2022-12-24T00:25:31;35.91;33.61;44.91;;
69619;Laerm;57653;51.434;5.984;2022-12-24T00:25:41;35.75;34.22;46.41;;
69619;Laerm;57653;51.434;5.984;2022-12-24T00:25:51;35.61;33.85;40.36;;
69619;Laerm;57653;51.434;5.984;2022-12-24T00:26:02;35.91;33.58;52.50;;
69619;Laerm;57653;51.434;5.984;2022-12-24T00:26:12;36.33;34.24;43.89;;
69619;Laerm;57653;51.434;5.984;2022-12-24T00:26:22;36.20;34.56;43.96;;
69619;Laerm;57653;51.434;5.984;2022-12-24T00:26:33;36.29;34.36;43.88;;
69619;Laerm;57653;51.434;5.984;2022-12-24T00:26:43;37.69;34.27;48.68;;
69619;Laerm;57653;51.434;5.984;2022-12-24T00:26:53;41.17;34.57;56.42;;
69619;Laerm;57653;51.434;5.984;2022-12-24T00:27:04;35.85;34.22;44.37;;
69619;Laerm;57653;51.434;5.984;2022-12-24T00:27:15;36.29;34.10;43.49;;
69619;Laerm;57653;51.434;5.984;2022-12-24T00:27:25;48.70;35.01;59.72;;
69619;Laerm;57653;51.434;5.984;2022-12-24T00:27:35;36.51;33.70;44.77;;
69619;Laerm;57653;51.434;5.984;2022-12-24T00:27:45;37.93;34.56;57.92;;
69619;Laerm;57653;51.434;5.984;2022-12-24T00:27:56;35.36;34.06;41.82;;
69619;Laerm;57653;51.434;5.984;2022-12-24T00:28:06;35.78;34.21;38.80;;
69619;Laerm;57653;51.434;5.984;2022-12-24T00:28:16;36.62;34.62;45.12;;
69619;Laerm;57653;51.434;5.984;2022-12-24T00:28:27;35.89;34.56;38.43;;
69619;Laerm;57653;51.434;5.984;2022-12-24T00:28:37;35.88;33.83;39.64;;
69619;Laerm;57653;51.434;5.984;2022-12-24T00:28:47;35.98;34.19;41.27;;
69619;Laerm;57653;51.434;5.984;2022-12-24T00:28:57;36.72;34.94;43.78;;
69619;Laerm;57653;51.434;5.984;2022-12-24T00:29:08;37.26;34.62;45.84;;
69619;Laerm;57653;51.434;5.984;2022-12-24T00:29:19;38.57;35.66;42.21;;
69619;Laerm;57653;51.434;5.984;2022-12-24T00:29:30;39.46;36.07;45.91;;
69619;Laerm;57653;51.434;5.984;2022-12-24T00:29:40;38.93;35.99;50.54;;
69619;Laerm;57653;51.434;5.984;2022-12-24T00:29:50;40.13;36.34;51.73;;
69619;Laerm;57653;51.434;5.984;2022-12-24T00:30:01;39.16;35.33;54.66;;
69619;Laerm;57653;51.434;5.984;2022-12-24T00:30:11;37.31;35.70;41.81;;
69619;Laerm;57653;51.434;5.984;2022-12-24T00:30:21;38.74;36.33;41.68;;
69619;Laerm;57653;51.434;5.984;2022-12-24T00:30:31;43.06;37.83;57.49;;
69619;Laerm;57653;51.434;5.984;2022-12-24T00:30:42;37.37;35.36;42.68;;
69619;Laerm;57653;51.434;5.984;2022-12-24T00:30:52;36.68;34.95;47.37;;
69619;Laerm;57653;51.434;5.984;2022-12-24T00:31:06;36.44;34.73;40.44;;
69619;Laerm;57653;51.434;5.984;2022-12-24T00:31:17;37.24;34.18;47.67;;
69619;Laerm;57653;51.434;5.984;2022-12-24T00:31:28;38.12;34.02;50.59;;
69619;Laerm;57653;51.434;5.984;2022-12-24T00:31:38;36.36;34.20;46.24;;
69619;Laerm;57653;51.434;5.984;2022-12-24T00:31:48;36.56;34.73;43.69;;
69619;Laerm;57653;51.434;5.984;2022-12-24T00:31:58;35.84;34.47;42.43;;
69619;Laerm;57653;51.434;5.984;2022-12-24T00:32:09;37.49;34.26;53.69;;
69619;Laerm;57653;51.434;5.984;2022-12-24T00:32:19;39.80;36.51;51.06;;
69619;Laerm;57653;51.434;5.984;2022-12-24T00:32:29;41.95;37.45;52.85;;
69619;Laerm;57653;51.434;5.984;2022-12-24T00:32:40;45.38;35.93;59.61;;
69619;Laerm;57653;51.434;5.984;2022-12-24T00:32:50;37.53;35.60;44.75;;
69619;Laerm;57653;51.434;5.984;2022-12-24T00:33:00;39.62;35.99;52.48;;
69619;Laerm;57653;51.434;5.984;2022-12-24T00:33:11;36.78;34.77;44.26;;
69619;Laerm;57653;51.434;5.984;2022-12-24T00:33:21;36.57;34.36;45.08;;
69619;Laerm;57653;51.434;5.984;2022-12-24T00:33:31;35.49;34.11;40.34;;
69619;Laerm;57653;51.434;5.984;2022-12-24T00:33:42;36.95;34.75;41.37;;
69619;Laerm;57653;51.434;5.984;2022-12-24T00:33:52;40.47;36.76;48.74;;
69619;Laerm;57653;51.434;5.984;2022-12-24T00:34:02;39.01;35.54;48.19;;
69619;Laerm;57653;51.434;5.984;2022-12-24T00:34:13;36.63;34.36;48.27;;
69619;Laerm;57653;51.434;5.984;2022-12-24T00:34:23;36.69;34.59;44.40;;
69619;Laerm;57653;51.434;5.984;2022-12-24T00:34:34;36.49;34.34;45.65;;
69619;Laerm;57653;51.434;5.984;2022-12-24T00:34:44;36.41;34.40;45.49;;
69619;Laerm;57653;51.434;5.984;2022-12-24T00:34:54;35.79;34.61;38.19;;
69619;Laerm;57653;51.434;5.984;2022-12-24T00:35:05;35.94;34.20;41.01;;
69619;Laerm;57653;51.434;5.984;2022-12-24T00:35:15;37.99;34.66;48.67;;
69619;Laerm;57653;51.434;5.984;2022-12-24T00:35:25;42.35;37.00;46.85;;
69619;Laerm;57653;51.434;5.984;2022-12-24T00:35:36;45.20;37.62;56.57;;
69619;Laerm;57653;51.434;5.984;2022-12-24T00:35:48;37.97;35.66;47.38;;
69619;Laerm;57653;51.434;5.984;2022-12-24T00:35:59;37.80;35.20;42.10;;
69619;Laerm;57653;51.434;5.984;2022-12-24T00:36:09;38.84;35.59;52.11;;
69619;Laerm;57653;51.434;5.984;2022-12-24T00:36:19;46.18;35.54;62.12;;
69619;Laerm;57653;51.434;5.984;2022-12-24T00:36:30;37.38;34.18;56.36;;
69619;Laerm;57653;51.434;5.984;2022-12-24T00:36:40;36.03;34.29;41.75;;
69619;Laerm;57653;51.434;5.984;2022-12-24T00:36:50;36.07;33.98;42.70;;
69619;Laerm;57653;51.434;5.984;2022-12-24T00:37:00;40.75;34.88;50.99;;
69619;Laerm;57653;51.434;5.984;2022-12-24T00:37:11;47.32;38.51;57.88;;
69619;Laerm;57653;51.434;5.984;2022-12-24T00:37:21;41.84;35.33;58.34;;
69619;Laerm;57653;51.434;5.984;2022-12-24T00:37:31;38.58;36.58;45.91;;
69619;Laerm;57653;51.434;5.984;2022-12-24T00:37:42;36.98;34.62;39.71;;
69619;Laerm;57653;51.434;5.984;2022-12-24T00:37:52;37.16;34.52;47.98;;
69619;Laerm;57653;51.434;5.984;2022-12-24T00:38:02;36.38;34.70;45.43;;
69619;Laerm;57653;51.434;5.984;2022-12-24T00:38:13;35.85;34.24;45.03;;
69619;Laerm;57653;51.434;5.984;2022-12-24T00:38:23;37.31;35.19;44.32;;
69619;Laerm;57653;51.434;5.984;2022-12-24T00:38:33;37.60;35.66;49.81;;
69619;Laerm;57653;51.434;5.984;2022-12-24T00:38:44;36.59;34.64;41.51;;
69619;Laerm;57653;51.434;5.984;2022-12-24T00:38:54;37.45;35.31;44.33;;
69619;Laerm;57653;51.434;5.984;2022-12-24T00:39:04;40.37;37.30;45.80;;
69619;Laerm;57653;51.434;5.984;2022-12-24T00:39:15;47.55;35.37;61.38;;
69619;Laerm;57653;51.434;5.984;2022-12-24T00:39:25;35.84;34.22;39.91;;
69619;Laerm;57653;51.434;5.984;2022-12-24T00:39:35;36.54;34.42;43.44;;
69619;Laerm;57653;51.434;5.984;2022-12-24T00:39:45;39.87;35.39;49.75;;
69619;Laerm;57653;51.434;5.984;2022-12-24T00:39:56;42.58;34.89;55.90;;
69619;Laerm;57653;51.434;5.984;2022-12-24T00:40:06;39.59;35.74;51.22;;
69619;Laerm;57653;51.434;5.984;2022-12-24T00:40:17;36.71;34.35;42.09;;
69619;Laerm;57653;51.434;5.984;2022-12-24T00:40:27;35.82;34.45;48.55;;
69619;Laerm;57653;51.434;5.984;2022-12-24T00:40:37;39.80;34.38;54.09;;
69619;Laerm;57653;51.434;5.984;2022-12-24T00:40:47;39.71;35.44;51.18;;
69619;Laerm;57653;51.434;5.984;2022-12-24T00:41:01;36.77;34.61;44.31;;
69619;Laerm;57653;51.434;5.984;2022-12-24T00:41:13;36.34;34.22;39.59;;
69619;Laerm;57653;51.434;5.984;2022-12-24T00:41:37;40.03;35.36;54.12;;
69619;Laerm;57653;51.434;5.984;2022-12-24T00:41:47;36.48;34.95;48.31;;
69619;Laerm;57653;51.434;5.984;2022-12-24T00:41:58;36.82;35.04;45.78;;
69619;Laerm;57653;51.434;5.984;2022-12-24T00:42:08;37.13;35.32;47.07;;
69619;Laerm;57653;51.434;5.984;2022-12-24T00:42:18;36.03;34.52;41.72;;
69619;Laerm;57653;51.434;5.984;2022-12-24T00:42:28;35.68;33.99;43.94;;
69619;Laerm;57653;51.434;5.984;2022-12-24T00:42:39;35.33;33.66;42.04;;
69619;Laerm;57653;51.434;5.984;2022-12-24T00:42:49;38.66;34.76;53.55;;
69619;Laerm;57653;51.434;5.984;2022-12-24T00:42:59;39.27;36.35;47.95;;
69619;Laerm;57653;51.434;5.984;2022-12-24T00:43:10;39.10;35.71;45.02;;
69619;Laerm;57653;51.434;5.984;2022-12-24T00:43:20;38.62;35.02;52.01;;
69619;Laerm;57653;51.434;5.984;2022-12-24T00:43:30;40.25;36.51;42.87;;
69619;Laerm;57653;51.434;5.984;2022-12-24T00:43:41;54.57;37.24;68.51;;
69619;Laerm;57653;51.434;5.984;2022-12-24T00:44:05;41.04;37.94;50.82;;
69619;Laerm;57653;51.434;5.984;2022-12-24T00:44:15;40.64;37.43;50.07;;
69619;Laerm;57653;51.434;5.984;2022-12-24T00:44:26;38.70;36.27;45.59;;
69619;Laerm;57653;51.434;5.984;2022-12-24T00:44:36;40.60;36.39;50.94;;
69619;Laerm;57653;51.434;5.984;2022-12-24T00:44:46;37.37;35.63;46.02;;
69619;Laerm;57653;51.434;5.984;2022-12-24T00:44:56;37.36;35.01;46.10;;
69619;Laerm;57653;51.434;5.984;2022-12-24T00:45:07;37.85;36.17;45.76;;
69619;Laerm;57653;51.434;5.984;2022-12-24T00:45:17;40.29;36.26;52.25;;
69619;Laerm;57653;51.434;5.984;2022-12-24T00:45:28;41.59;35.18;54.28;;
69619;Laerm;57653;51.434;5.984;2022-12-24T00:45:38;36.60;35.10;43.85;;
69619;Laerm;57653;51.434;5.984;2022-12-24T00:45:48;36.89;34.79;43.58;;
69619;Laerm;57653;51.434;5.984;2022-12-24T00:45:58;37.95;34.91;48.94;;
69619;Laerm;57653;51.434;5.984;2022-12-24T00:46:09;36.32;34.75;42.83;;
69619;Laerm;57653;51.434;5.984;2022-12-24T00:46:19;35.77;34.18;39.33;;
69619;Laerm;57653;51.434;5.984;2022-12-24T00:46:32;37.59;34.59;47.59;;
69619;Laerm;57653;51.434;5.984;2022-12-24T00:46:42;36.32;34.45;45.45;;
69619;Laerm;57653;51.434;5.984;2022-12-24T00:46:53;39.24;34.58;51.90;;
69619;Laerm;57653;51.434;5.984;2022-12-24T00:47:03;38.12;34.69;47.92;;
69619;Laerm;57653;51.434;5.984;2022-12-24T00:47:13;41.52;36.48;53.41;;
69619;Laerm;57653;51.434;5.984;2022-12-24T00:47:23;36.90;34.80;47.88;;
69619;Laerm;57653;51.434;5.984;2022-12-24T00:47:33;35.97;34.35;40.76;;
69619;Laerm;57653;51.434;5.984;2022-12-24T00:47:44;36.02;34.37;42.92;;
69619;Laerm;57653;51.434;5.984;2022-12-24T00:47:54;36.49;35.03;40.07;;
69619;Laerm;57653;51.434;5.984;2022-12-24T00:48:04;36.51;34.70;44.32;;
69619;Laerm;57653;51.434;5.984;2022-12-24T00:48:15;36.90;34.73;45.24;;
69619;Laerm;57653;51.434;5.984;2022-12-24T00:48:25;40.06;34.96;53.38;;
69619;Laerm;57653;51.434;5.984;2022-12-24T00:48:35;37.95;35.07;49.83;;
69619;Laerm;57653;51.434;5.984;2022-12-24T00:48:46;36.53;34.55;41.89;;
69619;Laerm;57653;51.434;5.984;2022-12-24T00:48:56;36.73;34.55;45.68;;
69619;Laerm;57653;51.434;5.984;2022-12-24T00:49:06;35.75;34.16;38.92;;
69619;Laerm;57653;51.434;5.984;2022-12-24T00:49:17;35.63;33.97;37.11;;
69619;Laerm;57653;51.434;5.984;2022-12-24T00:49:27;36.07;34.20;47.65;;
69619;Laerm;57653;51.434;5.984;2022-12-24T00:49:37;35.83;33.86;49.62;;
69619;Laerm;57653;51.434;5.984;2022-12-24T00:49:48;36.31;34.51;44.70;;
69619;Laerm;57653;51.434;5.984;2022-12-24T00:49:58;35.84;34.28;38.59;;
69619;Laerm;57653;51.434;5.984;2022-12-24T00:50:08;36.15;34.74;40.29;;
69619;Laerm;57653;51.434;5.984;2022-12-24T00:50:19;35.66;34.09;37.40;;
69619;Laerm;57653;51.434;5.984;2022-12-24T00:50:29;35.23;33.58;43.52;;
69619;Laerm;57653;51.434;5.984;2022-12-24T00:50:39;35.69;33.91;39.07;;
69619;Laerm;57653;51.434;5.984;2022-12-24T00:50:50;36.94;33.80;47.46;;
69619;Laerm;57653;51.434;5.984;2022-12-24T00:51:00;34.99;33.92;36.51;;
69619;Laerm;57653;51.434;5.984;2022-12-24T00:51:10;35.19;33.83;44.02;;
69619;Laerm;57653;51.434;5.984;2022-12-24T00:51:21;35.15;33.78;39.57;;
69619;Laerm;57653;51.434;5.984;2022-12-24T00:51:31;36.15;33.93;47.79;;
69619;Laerm;57653;51.434;5.984;2022-12-24T00:51:42;40.26;34.99;59.40;;
69619;Laerm;57653;51.434;5.984;2022-12-24T00:51:52;37.55;34.86;45.72;;
69619;Laerm;57653;51.434;5.984;2022-12-24T00:52:02;40.67;35.10;52.54;;
69619;Laerm;57653;51.434;5.984;2022-12-24T00:52:12;38.00;35.49;47.67;;
69619;Laerm;57653;51.434;5.984;2022-12-24T00:52:23;36.56;34.68;43.40;;
69619;Laerm;57653;51.434;5.984;2022-12-24T00:52:33;36.57;35.04;43.23;;
69619;Laerm;57653;51.434;5.984;2022-12-24T00:52:44;35.88;33.62;41.90;;
69619;Laerm;57653;51.434;5.984;2022-12-24T00:52:54;35.33;33.89;39.17;;
69619;Laerm;57653;51.434;5.984;2022-12-24T00:53:04;35.19;33.85;36.57;;
69619;Laerm;57653;51.434;5.984;2022-12-24T00:53:15;35.42;33.62;39.87;;
69619;Laerm;57653;51.434;5.984;2022-12-24T00:53:25;34.83;33.71;37.59;;
69619;Laerm;57653;51.434;5.984;2022-12-24T00:53:35;34.87;33.31;40.74;;
69619;Laerm;57653;51.434;5.984;2022-12-24T00:53:46;34.88;32.92;37.16;;
69619;Laerm;57653;51.434;5.984;2022-12-24T00:53:56;34.64;33.41;37.27;;
69619;Laerm;57653;51.434;5.984;2022-12-24T00:54:07;34.67;33.38;36.36;;
69619;Laerm;57653;51.434;5.984;2022-12-24T00:54:17;34.78;33.46;36.39;;
69619;Laerm;57653;51.434;5.984;2022-12-24T00:54:27;35.73;33.96;41.22;;
69619;Laerm;57653;51.434;5.984;2022-12-24T00:54:38;35.02;33.42;42.06;;
69619;Laerm;57653;51.434;5.984;2022-12-24T00:54:48;39.02;35.44;44.22;;
69619;Laerm;57653;51.434;5.984;2022-12-24T00:54:58;41.40;36.50;58.38;;
69619;Laerm;57653;51.434;5.984;2022-12-24T00:55:09;37.39;35.48;48.19;;
69619;Laerm;57653;51.434;5.984;2022-12-24T00:55:19;36.57;34.77;40.54;;
69619;Laerm;57653;51.434;5.984;2022-12-24T00:55:29;35.50;34.37;37.28;;
69619;Laerm;57653;51.434;5.984;2022-12-24T00:55:39;35.09;33.71;39.28;;
69619;Laerm;57653;51.434;5.984;2022-12-24T00:55:50;34.96;33.90;39.02;;
69619;Laerm;57653;51.434;5.984;2022-12-24T00:56:00;35.02;33.74;37.08;;
69619;Laerm;57653;51.434;5.984;2022-12-24T00:56:10;35.02;33.84;37.13;;
69619;Laerm;57653;51.434;5.984;2022-12-24T00:56:21;34.65;33.37;35.78;;
69619;Laerm;57653;51.434;5.984;2022-12-24T00:56:31;34.76;33.08;45.25;;
69619;Laerm;57653;51.434;5.984;2022-12-24T00:56:42;34.95;33.68;37.36;;
69619;Laerm;57653;51.434;5.984;2022-12-24T00:56:52;35.02;33.43;45.41;;
69619;Laerm;57653;51.434;5.984;2022-12-24T00:57:02;35.06;33.53;43.88;;
69619;Laerm;57653;51.434;5.984;2022-12-24T00:57:12;34.87;33.39;41.08;;
69619;Laerm;57653;51.434;5.984;2022-12-24T00:57:23;34.88;33.51;37.38;;
69619;Laerm;57653;51.434;5.984;2022-12-24T00:57:33;35.24;33.83;42.14;;
69619;Laerm;57653;51.434;5.984;2022-12-24T00:57:43;36.49;33.96;47.55;;
69619;Laerm;57653;51.434;5.984;2022-12-24T00:57:53;35.84;34.22;44.68;;
69619;Laerm;57653;51.434;5.984;2022-12-24T00:58:04;36.01;34.12;42.41;;
69619;Laerm;57653;51.434;5.984;2022-12-24T00:58:14;35.26;33.92;38.59;;
69619;Laerm;57653;51.434;5.984;2022-12-24T00:58:24;35.37;33.71;45.71;;
69619;Laerm;57653;51.434;5.984;2022-12-24T00:58:35;35.20;33.54;37.11;;
69619;Laerm;57653;51.434;5.984;2022-12-24T00:58:45;34.94;33.45;38.66;;